Time;durP1;ratioP1;P1;durP2;ratioP2;P2;SDS_P1;SDS_P2;PMS_P1;PMS_P2;Temp;Humidity;BMP_temperature;BMP_pressure;BME280_temperature;BME280_humidity;BME280_pressure;Samples;Min_cycle;Max_cycle;Signal;HPM_P1;HPM_P2
2022/06/18 00:01:48;;;;;;;3.83;1.80;;;;;;;25.93;41.51;101703.81;5105607;28;20048;-68
2022/06/18 00:04:19;;;;;;;2.17;1.58;;;;;;;25.92;41.54;101704.09;5100589;28;20052;-68
2022/06/18 00:06:51;;;;;;;1.75;1.50;;;;;;;25.90;41.60;101711.88;5100581;28;20075;-68
2022/06/18 00:09:21;;;;;;;3.10;2.08;;;;;;;25.88;41.45;101705.84;5094966;28;20097;-68
2022/06/18 00:14:34;;;;;;;2.88;1.67;;;;;;;25.82;41.58;101691.34;5093911;28;20048;-68
2022/06/18 00:17:13;;;;;;;3.42;1.90;;;;;;;25.80;41.53;101699.09;5101512;28;20113;-68
2022/06/18 00:19:44;;;;;;;2.60;1.80;;;;;;;25.80;41.73;101687.25;5102994;28;20051;-68
2022/06/18 00:22:13;;;;;;;4.97;1.60;;;;;;;25.80;41.70;101698.28;5096359;28;20075;-68
2022/06/18 00:24:42;;;;;;;2.97;2.08;;;;;;;25.79;41.68;101699.41;5100728;28;20043;-69
2022/06/18 00:27:11;;;;;;;2.78;1.85;;;;;;;25.76;41.74;101689.00;5102202;28;20044;-68
2022/06/18 00:29:39;;;;;;;3.15;1.73;;;;;;;25.74;41.53;101693.97;5096131;28;20040;-68
2022/06/18 00:32:08;;;;;;;3.15;2.00;;;;;;;25.68;41.76;101681.44;5099116;28;20168;-68
2022/06/18 00:34:36;;;;;;;3.75;2.10;;;;;;;25.71;41.71;101692.66;5098186;28;20040;-68
2022/06/18 00:37:06;;;;;;;3.15;2.00;;;;;;;25.70;41.59;101691.03;5098451;28;20129;-67
2022/06/18 00:39:34;;;;;;;2.92;1.80;;;;;;;25.69;41.69;101694.06;5104280;28;20066;-68
2022/06/18 00:42:08;;;;;;;2.85;2.03;;;;;;;25.61;41.74;101677.09;5089713;28;20048;-67
2022/06/18 00:44:38;;;;;;;3.95;1.90;;;;;;;25.66;41.77;101678.97;5104415;28;20432;-68
2022/06/18 00:47:11;;;;;;;4.00;2.10;;;;;;;25.63;41.75;101691.38;5101422;28;20532;-67
2022/06/18 00:49:47;;;;;;;3.08;2.03;;;;;;;25.51;41.73;101669.03;5097944;28;20099;-68
2022/06/18 00:52:22;;;;;;;3.40;1.70;;;;;;;25.60;41.74;101677.41;5098947;28;20044;-68
2022/06/18 00:54:59;;;;;;;3.60;2.27;;;;;;;25.57;41.87;101680.75;5097592;28;20049;-68
2022/06/18 00:57:32;;;;;;;2.70;1.88;;;;;;;25.56;42.08;101684.63;5099203;28;20420;-68
2022/06/18 01:00:05;;;;;;;2.90;2.05;;;;;;;25.53;42.21;101683.31;5101171;28;20060;-68
2022/06/18 01:02:36;;;;;;;4.57;2.42;;;;;;;25.51;42.25;101677.28;5104105;28;20117;-68
2022/06/18 01:05:16;;;;;;;3.17;1.90;;;;;;;25.50;42.27;101680.34;5102539;28;20069;-68
2022/06/18 01:07:48;;;;;;;2.90;1.90;;;;;;;25.47;42.32;101681.75;5101021;28;20066;-68
2022/06/18 01:10:21;;;;;;;1.77;1.55;;;;;;;25.43;42.03;101672.47;5098101;28;20036;-66
2022/06/18 01:12:50;;;;;;;4.95;2.20;;;;;;;25.45;42.40;101677.69;5107772;28;20059;-67
2022/06/18 01:15:20;;;;;;;4.13;2.08;;;;;;;25.41;42.39;101674.72;5102705;28;20044;-68
2022/06/18 01:17:51;;;;;;;3.53;2.03;;;;;;;25.40;42.34;101675.00;5106496;28;20052;-68
2022/06/18 01:20:21;;;;;;;4.15;2.10;;;;;;;25.37;42.46;101670.91;5104854;28;20036;-68
2022/06/18 01:22:59;;;;;;;3.55;2.10;;;;;;;25.35;42.46;101667.66;5103837;28;20484;-68
2022/06/18 01:25:31;;;;;;;1.85;1.35;;;;;;;25.34;42.42;101667.97;5096768;28;20049;-67
2022/06/18 01:27:59;;;;;;;4.93;2.05;;;;;;;25.31;42.47;101663.88;5101310;28;20417;-66
2022/06/18 01:30:32;;;;;;;2.97;1.98;;;;;;;25.28;42.56;101664.47;5105098;28;20117;-68
2022/06/18 01:33:01;;;;;;;2.85;1.85;;;;;;;25.25;42.83;101659.56;5091750;28;20071;-68
2022/06/18 01:35:30;;;;;;;4.95;2.40;;;;;;;25.23;42.68;101659.06;5103052;28;20503;-68
2022/06/18 01:37:59;;;;;;;3.13;1.90;;;;;;;25.21;42.90;101661.28;5099023;28;20097;-68
2022/06/18 01:40:34;;;;;;;4.53;2.30;;;;;;;25.18;42.64;101661.88;5103472;28;20119;-68
2022/06/18 01:43:02;;;;;;;4.22;2.58;;;;;;;25.16;42.83;101662.19;5101364;28;20052;-68
2022/06/18 01:45:33;;;;;;;3.60;2.40;;;;;;;25.15;43.04;101673.50;5107105;28;20052;-69
2022/06/18 01:48:07;;;;;;;2.58;1.90;;;;;;;25.12;43.14;101665.84;5102709;28;20047;-67
2022/06/18 01:50:39;;;;;;;4.90;1.92;;;;;;;25.10;43.36;101668.88;5102529;28;20036;-68
2022/06/18 01:53:11;;;;;;;3.20;1.95;;;;;;;25.09;43.10;101663.69;5103284;28;20068;-67
2022/06/18 01:55:46;;;;;;;3.35;2.50;;;;;;;25.05;42.96;101668.97;5100527;28;20040;-68
2022/06/18 01:58:18;;;;;;;4.07;1.65;;;;;;;25.03;43.34;101659.38;5094257;28;20082;-68
2022/06/18 02:00:49;;;;;;;2.72;1.90;;;;;;;25.03;43.37;101665.69;5104010;28;20146;-67
2022/06/18 02:03:16;;;;;;;4.20;1.85;;;;;;;25.03;43.31;101659.38;5103965;28;20044;-67
2022/06/18 02:05:45;;;;;;;4.45;2.10;;;;;;;25.01;43.07;101659.69;5099779;28;20532;-68
2022/06/18 02:08:16;;;;;;;3.90;1.73;;;;;;;24.99;43.39;101659.16;5095612;28;20071;-68
2022/06/18 02:10:52;;;;;;;3.40;1.70;;;;;;;24.97;43.14;101655.91;5103686;28;20080;-68
2022/06/18 02:13:23;;;;;;;2.78;1.75;;;;;;;24.95;43.40;101664.41;5104288;28;20086;-68
2022/06/18 02:15:53;;;;;;;3.13;1.88;;;;;;;24.93;43.55;101652.91;5102899;28;20079;-68
2022/06/18 02:18:21;;;;;;;3.75;2.25;;;;;;;24.91;43.50;101657.88;5102254;28;20535;-68
2022/06/18 02:20:51;;;;;;;3.20;2.03;;;;;;;24.89;43.62;101657.34;5102839;28;20048;-68
2022/06/18 02:23:21;;;;;;;3.15;2.28;;;;;;;24.88;43.67;101663.16;5102389;28;20083;-68
2022/06/18 02:25:51;;;;;;;3.63;1.77;;;;;;;24.86;43.39;101654.38;5102398;28;20080;-68
2022/06/18 02:28:22;;;;;;;4.15;2.28;;;;;;;24.85;43.56;101655.50;5100011;28;20523;-68
2022/06/18 02:30:52;;;;;;;3.42;1.80;;;;;;;24.83;43.79;101660.47;5097609;28;20051;-68
2022/06/18 02:33:30;;;;;;;3.20;1.90;;;;;;;24.80;43.76;101653.66;5103504;28;20427;-68
2022/06/18 02:36:01;;;;;;;2.17;1.70;;;;;;;24.76;43.65;101649.03;5092568;28;20052;-68
2022/06/18 02:38:31;;;;;;;2.38;1.77;;;;;;;24.76;43.83;101657.28;5093439;28;20085;-68
2022/06/18 02:41:00;;;;;;;2.92;1.95;;;;;;;24.76;44.02;101654.53;5095773;28;20048;-68
2022/06/18 02:43:28;;;;;;;3.38;2.00;;;;;;;24.74;43.78;101657.59;5102505;28;20044;-68
2022/06/18 02:45:57;;;;;;;2.40;1.90;;;;;;;24.72;44.03;101659.81;5103161;28;20056;-68
2022/06/18 02:48:29;;;;;;;3.55;2.10;;;;;;;24.70;43.91;101655.72;5098570;28;20052;-68
2022/06/18 02:50:58;;;;;;;4.05;2.28;;;;;;;24.67;44.10;101657.97;5103007;28;20051;-67
2022/06/18 02:53:27;;;;;;;7.70;2.50;;;;;;;24.67;44.34;101654.38;5099676;28;20067;-68
2022/06/18 02:55:59;;;;;;;5.50;2.38;;;;;;;24.64;44.05;101654.97;5101662;28;20059;-68
2022/06/18 02:58:30;;;;;;;3.47;2.00;;;;;;;24.63;43.96;101653.34;5103171;28;20044;-68
2022/06/18 03:01:00;;;;;;;4.28;2.22;;;;;;;24.59;44.47;101649.56;5096107;28;20040;-68
2022/06/18 03:03:33;;;;;;;3.13;1.90;;;;;;;24.56;44.16;101656.47;5103497;28;20040;-68
2022/06/18 03:06:01;;;;;;;2.50;2.25;;;;;;;24.55;44.34;101654.00;5100779;28;20109;-67
2022/06/18 03:08:30;;;;;;;4.28;2.15;;;;;;;24.52;44.58;101654.59;5107154;28;20052;-68
2022/06/18 03:13:46;;;;;;;4.15;2.30;;;;;;;24.48;44.44;101656.31;5103024;28;20082;-68
2022/06/18 03:16:17;;;;;;;3.00;2.13;;;;;;;24.47;44.32;101655.50;5103647;28;20047;-66
2022/06/18 03:18:46;;;;;;;4.97;2.03;;;;;;;24.44;44.81;101652.50;5104955;28;20062;-68
2022/06/18 03:21:21;;;;;;;3.05;1.95;;;;;;;24.42;44.50;101658.31;5103724;28;20076;-68
2022/06/18 03:23:49;;;;;;;3.58;2.15;;;;;;;24.40;44.72;101657.78;5098163;28;20048;-68
2022/06/18 03:26:18;;;;;;;2.83;1.90;;;;;;;24.40;44.46;101660.53;5107538;28;20052;-69
2022/06/18 03:28:47;;;;;;;4.03;2.38;;;;;;;24.38;45.09;101657.25;5108114;28;20191;-68
2022/06/18 03:31:15;;;;;;;5.63;2.60;;;;;;;24.36;44.49;101662.22;5104485;28;20051;-69
2022/06/18 03:33:43;;;;;;;3.85;2.40;;;;;;;24.34;44.89;101659.78;5106548;28;20052;-68
2022/06/18 03:36:12;;;;;;;3.15;2.08;;;;;;;24.31;45.04;101660.38;5102331;28;20055;-68
2022/06/18 03:38:40;;;;;;;4.07;2.05;;;;;;;24.29;44.72;101657.09;5094043;28;20081;-68
2022/06/18 03:41:09;;;;;;;4.00;2.25;;;;;;;24.28;44.83;101663.69;5104667;28;20521;-68
2022/06/18 03:43:37;;;;;;;2.60;2.40;;;;;;;24.19;44.82;101657.22;5103210;28;20140;-68
2022/06/18 03:46:08;;;;;;;4.32;2.30;;;;;;;24.27;45.02;101655.75;5096055;28;20049;-68
2022/06/18 03:48:42;;;;;;;3.83;2.20;;;;;;;24.25;44.87;101660.72;5103389;28;20055;-68
2022/06/18 03:51:11;;;;;;;2.75;1.90;;;;;;;24.23;45.19;101661.03;5098781;28;20040;-68
2022/06/18 03:53:40;;;;;;;3.45;2.30;;;;;;;24.22;45.23;101655.81;5103387;28;20110;-69
2022/06/18 03:56:10;;;;;;;3.28;2.33;;;;;;;24.22;45.04;101655.81;5099386;28;20044;-69
2022/06/18 03:58:37;;;;;;;3.22;2.13;;;;;;;24.20;44.94;101647.06;5097028;28;20068;-68
2022/06/18 04:01:07;;;;;;;5.40;2.80;;;;;;;24.18;44.65;101646.53;5089373;28;20484;-67
2022/06/18 04:03:35;;;;;;;4.40;2.30;;;;;;;24.18;44.90;101649.28;5095567;28;20052;-67
2022/06/18 04:06:03;;;;;;;8.50;2.75;;;;;;;24.17;45.18;101645.72;5095783;28;20059;-68
2022/06/18 04:08:31;;;;;;;5.45;2.28;;;;;;;24.15;44.72;101642.44;5100304;28;20075;-68
2022/06/18 04:10:59;;;;;;;4.35;2.40;;;;;;;24.14;45.22;101640.00;5099620;28;20505;-68
2022/06/18 04:13:28;;;;;;;4.93;2.63;;;;;;;24.13;45.09;101641.09;5100190;28;20055;-68
2022/06/18 04:15:56;;;;;;;6.72;2.35;;;;;;;24.11;45.23;101644.13;5096633;28;20105;-68
2022/06/18 04:18:26;;;;;;;4.40;2.17;;;;;;;24.11;45.23;101644.13;5093656;28;20066;-69
2022/06/18 04:20:54;;;;;;;4.32;2.45;;;;;;;24.07;45.06;101636.78;5101974;28;20094;-68
2022/06/18 04:23:22;;;;;;;4.35;2.38;;;;;;;24.08;45.54;101641.97;5095281;28;20469;-68
2022/06/18 04:25:50;;;;;;;5.25;2.50;;;;;;;24.03;45.47;101636.53;5101207;28;20044;-68
2022/06/18 04:28:19;;;;;;;3.53;2.20;;;;;;;24.06;45.30;101651.63;5099847;28;20139;-68
2022/06/18 04:30:47;;;;;;;3.25;2.50;;;;;;;24.05;45.37;101647.25;5099250;28;20036;-68
2022/06/18 04:33:15;;;;;;;3.38;2.22;;;;;;;23.97;45.04;101643.22;5097883;28;20051;-68
2022/06/18 04:35:52;;;;;;;5.80;2.97;;;;;;;24.01;45.45;101644.25;5103149;28;20052;-68
2022/06/18 04:38:20;;;;;;;3.50;2.30;;;;;;;23.98;45.45;101651.16;5105486;28;20069;-68
2022/06/18 04:40:49;;;;;;;4.32;2.50;;;;;;;23.99;45.49;101655.53;5108376;28;20044;-68
2022/06/18 04:43:27;;;;;;;4.00;2.20;;;;;;;23.99;45.48;101654.72;5097445;28;20036;-68
2022/06/18 04:45:56;;;;;;;7.15;2.90;;;;;;;23.96;45.06;101656.13;5109206;28;20116;-69
2022/06/18 04:48:24;;;;;;;4.30;2.03;;;;;;;23.93;45.25;101644.91;4746685;28;10000114;-68
2022/06/18 04:50:53;;;;;;;4.75;2.70;;;;;;;23.95;45.33;101649.00;5102571;28;20105;-68
2022/06/18 04:53:21;;;;;;;5.70;2.58;;;;;;;23.96;45.55;101647.06;5097230;28;20109;-70
2022/06/18 04:55:49;;;;;;;3.20;2.20;;;;;;;23.95;45.67;101649.00;5100047;28;20101;-66
2022/06/18 04:58:17;;;;;;;4.72;2.45;;;;;;;23.96;45.50;101644.31;5104899;28;20080;-68
2022/06/18 05:00:44;;;;;;;2.90;2.38;;;;;;;23.91;45.53;101634.22;5100305;28;20115;-68
2022/06/18 05:03:17;;;;;;;2.72;1.90;;;;;;;23.94;45.59;101646.53;5103279;28;20630;-67
2022/06/18 05:05:45;;;;;;;3.85;2.10;;;;;;;23.93;45.42;101639.41;5104495;28;20060;-67
2022/06/18 05:08:14;;;;;;;4.38;2.15;;;;;;;23.94;45.56;101649.28;5099837;28;20052;-67
2022/06/18 05:10:42;;;;;;;3.42;2.40;;;;;;;23.93;45.54;101642.97;5102606;28;20113;-69
2022/06/18 05:13:10;;;;;;;3.55;2.45;;;;;;;23.92;45.23;101638.59;5107028;28;20067;-68
2022/06/18 05:15:40;;;;;;;2.40;2.03;;;;;;;23.92;45.38;101640.53;5102252;28;20059;-70
2022/06/18 05:18:12;;;;;;;4.82;2.35;;;;;;;23.92;45.76;101644.09;5100169;28;20048;-67
2022/06/18 05:20:40;;;;;;;3.63;2.53;;;;;;;23.92;45.55;101643.25;5104898;28;20071;-65
2022/06/18 05:23:11;;;;;;;3.83;2.38;;;;;;;23.92;45.85;101640.53;5102913;28;20048;-66
2022/06/18 05:25:40;;;;;;;4.93;2.30;;;;;;;23.92;45.57;101640.53;5107205;28;20112;-69
2022/06/18 05:28:10;;;;;;;4.95;2.53;;;;;;;23.92;45.48;101648.75;5104936;28;20083;-67
2022/06/18 05:30:38;;;;;;;4.18;2.60;;;;;;;23.94;46.04;101650.09;5105839;28;20084;-68
2022/06/18 05:33:06;;;;;;;4.10;2.58;;;;;;;23.95;45.59;101648.19;5101198;28;20361;-67
2022/06/18 05:35:38;;;;;;;4.05;2.65;;;;;;;23.95;45.73;101651.75;5105538;28;20067;-70
2022/06/18 05:38:06;;;;;;;4.28;2.55;;;;;;;23.96;46.23;101656.13;5099269;28;20096;-67
2022/06/18 05:40:34;;;;;;;2.85;2.10;;;;;;;23.95;46.08;101659.16;5106931;28;20097;-68
2022/06/18 05:43:03;;;;;;;4.18;2.42;;;;;;;23.94;45.98;101663.84;5104639;28;20044;-68
2022/06/18 05:45:31;;;;;;;4.15;2.60;;;;;;;23.95;46.30;101668.22;5104383;28;20113;-68
2022/06/18 05:47:59;;;;;;;4.65;2.83;;;;;;;23.98;46.17;101675.06;5101384;28;20052;-69
2022/06/18 05:50:26;;;;;;;4.75;2.20;;;;;;;23.98;46.41;101666.81;5106695;28;21190;-71
2022/06/18 05:52:54;;;;;;;3.63;2.28;;;;;;;23.98;46.24;101662.13;5102045;28;20036;-72
2022/06/18 05:55:25;;;;;;;3.38;2.10;;;;;;;24.00;46.15;101668.16;5098708;28;20048;-70
2022/06/18 05:57:56;;;;;;;4.72;2.58;;;;;;;24.01;46.90;101658.00;5092460;28;20101;-70
2022/06/18 06:00:31;;;;;;;6.72;3.33;;;;;;;24.03;46.83;101658.50;5099490;28;20048;-70
2022/06/18 06:02:59;;;;;;;6.50;2.70;;;;;;;24.02;46.75;101660.44;5101222;28;20051;-68
2022/06/18 06:05:27;;;;;;;6.80;2.72;;;;;;;24.04;46.87;101665.66;5096608;28;20093;-67
2022/06/18 06:07:55;;;;;;;6.18;2.95;;;;;;;24.07;46.98;101658.75;5093915;28;20064;-66
2022/06/18 06:13:11;;;;;;;4.93;3.05;;;;;;;24.06;46.43;101644.19;5095994;28;20072;-67
2022/06/18 06:15:41;;;;;;;4.88;3.05;;;;;;;24.11;46.47;101652.38;5102214;28;20083;-67
2022/06/18 06:18:11;;;;;;;8.20;2.83;;;;;;;24.13;46.79;101647.41;5100612;28;20060;-67
2022/06/18 06:20:42;;;;;;;5.18;3.38;;;;;;;24.15;46.73;101652.59;5102187;28;20056;-68
2022/06/18 06:23:10;;;;;;;6.00;2.75;;;;;;;24.18;46.43;101652.03;5100355;28;20072;-68
2022/06/18 06:25:39;;;;;;;6.72;2.58;;;;;;;24.18;46.78;101650.09;5100603;28;20080;-68
2022/06/18 06:28:09;;;;;;;4.57;2.60;;;;;;;24.18;46.53;101649.28;5094892;28;20052;-68
2022/06/18 06:30:38;;;;;;;5.13;2.63;;;;;;;24.21;46.34;101648.69;5102457;28;20080;-69
2022/06/18 06:33:07;;;;;;;5.05;2.80;;;;;;;24.22;46.36;101647.56;5099277;28;20052;-68
2022/06/18 06:35:35;;;;;;;5.80;3.10;;;;;;;24.24;46.73;101650.84;5102450;28;20087;-69
2022/06/18 06:38:04;;;;;;;6.25;3.28;;;;;;;24.25;46.67;101647.00;5099635;28;20048;-69
2022/06/18 06:40:33;;;;;;;8.07;3.00;;;;;;;24.16;46.45;101633.09;5098386;28;20076;-70
2022/06/18 06:43:01;;;;;;;6.63;3.28;;;;;;;24.18;46.29;101639.09;5100657;28;20161;-74
2022/06/18 06:45:31;;;;;;;8.20;3.50;;;;;;;24.20;46.31;101644.31;5096415;28;20052;-73
2022/06/18 06:48:00;;;;;;;6.10;3.00;;;;;;;24.18;46.78;101646.53;5098169;28;20052;-70
2022/06/18 06:50:30;;;;;;;6.32;3.35;;;;;;;24.17;46.72;101650.38;5098782;28;20048;-72
2022/06/18 06:52:58;;;;;;;5.45;2.83;;;;;;;24.16;46.81;101646.81;5106391;28;20048;-73
2022/06/18 06:58:14;;;;;;;5.55;3.30;;;;;;;24.14;46.94;101645.47;5098467;28;20082;-74
2022/06/18 07:00:47;;;;;;;6.97;3.67;;;;;;;24.13;46.90;101647.41;5100337;28;20044;-74
2022/06/18 07:03:17;;;;;;;6.65;3.13;;;;;;;24.09;46.71;101645.53;5101933;28;20044;-73
2022/06/18 07:05:46;;;;;;;9.68;3.63;;;;;;;24.11;46.51;101648.81;5101092;28;20052;-73
2022/06/18 07:08:14;;;;;;;7.47;3.20;;;;;;;24.12;47.01;101653.19;5102258;28;20048;-73
2022/06/18 07:10:43;;;;;;;7.40;3.40;;;;;;;24.12;46.91;101653.19;5100775;28;20062;-72
2022/06/18 07:13:11;;;;;;;11.07;3.50;;;;;;;24.11;47.33;101649.63;5099081;28;20139;-64
2022/06/18 07:15:39;;;;;;;8.15;3.72;;;;;;;24.12;46.79;101648.53;5101699;28;20087;-68
2022/06/18 07:18:14;;;;;;;11.43;4.38;;;;;;;24.09;46.93;101642.78;5100226;28;20592;-66
2022/06/18 07:20:43;;;;;;;9.45;3.53;;;;;;;24.14;47.30;101642.72;5101231;28;20071;-69
2022/06/18 07:23:12;;;;;;;10.73;3.08;;;;;;;24.16;47.12;101638.59;5099326;28;20040;-68
2022/06/18 07:25:40;;;;;;;11.43;3.58;;;;;;;24.19;46.89;101638.00;5094155;28;20051;-69
2022/06/18 07:28:08;;;;;;;9.40;3.17;;;;;;;24.18;47.18;101641.84;5097901;28;20051;-65
2022/06/18 07:30:37;;;;;;;9.80;3.90;;;;;;;24.19;47.55;101639.94;5097033;28;20112;-67
2022/06/18 07:33:05;;;;;;;9.75;3.58;;;;;;;24.20;47.15;101644.31;5094929;28;20405;-68
2022/06/18 07:35:35;;;;;;;6.53;3.20;;;;;;;24.19;47.21;101640.75;5101800;28;20082;-67
2022/06/18 07:38:03;;;;;;;10.95;3.30;;;;;;;24.19;47.57;101631.69;5096261;28;20078;-67
2022/06/18 07:40:44;;;;;;;8.02;3.60;;;;;;;24.21;47.72;101640.44;5103852;28;20364;-67
2022/06/18 07:43:17;;;;;;;14.50;3.38;;;;;;;24.21;47.62;101632.22;5100213;28;20044;-67
2022/06/18 07:45:46;;;;;;;8.35;3.80;;;;;;;24.21;47.20;101629.47;5103410;28;20048;-68
2022/06/18 07:48:15;;;;;;;8.80;2.92;;;;;;;24.22;47.21;101629.16;5102589;28;20051;-68
2022/06/18 07:50:46;;;;;;;11.38;3.60;;;;;;;24.25;47.34;101633.25;5103743;28;20289;-68
2022/06/18 07:53:16;;;;;;;8.95;3.45;;;;;;;24.22;47.44;101631.91;5102214;28;20059;-67
2022/06/18 07:55:45;;;;;;;9.15;3.10;;;;;;;24.20;47.20;101617.66;5102694;28;20051;-67
2022/06/18 07:58:13;;;;;;;9.60;3.08;;;;;;;24.28;47.02;101621.69;5098763;28;20079;-67
2022/06/18 08:00:42;;;;;;;7.78;3.15;;;;;;;24.29;47.32;101621.38;5096669;28;20040;-67
2022/06/18 08:03:12;;;;;;;7.70;2.95;;;;;;;24.31;47.44;101621.09;5099739;28;20465;-67
2022/06/18 08:05:40;;;;;;;9.45;3.30;;;;;;;24.32;47.39;101611.72;5103064;28;20154;-68
2022/06/18 08:08:08;;;;;;;7.53;3.08;;;;;;;24.34;47.52;101615.81;5101156;28;20513;-67
2022/06/18 08:10:57;;;;;;;11.45;3.70;;;;;;;24.30;47.50;101602.97;5101368;28;20060;-68
2022/06/18 08:13:25;;;;;;;5.53;2.80;;;;;;;24.37;47.81;101613.59;5096888;28;20045;-68
2022/06/18 08:15:53;;;;;;;6.75;3.00;;;;;;;24.38;47.56;101601.50;5100863;28;20087;-68
2022/06/18 08:18:20;;;;;;;7.30;3.05;;;;;;;24.37;47.51;101599.84;5096503;28;20086;-68
2022/06/18 08:20:58;;;;;;;;;;;;;;;24.40;47.78;101596.50;5102696;28;20131;-68
2022/06/18 08:23:25;;;;;;;14.90;3.53;;;;;;;24.36;47.92;101590.78;5102405;28;20272;-67
2022/06/18 08:25:53;;;;;;;13.00;3.65;;;;;;;24.43;48.02;101588.50;5102409;28;20056;-68
2022/06/18 08:28:22;;;;;;;7.15;3.28;;;;;;;24.44;48.28;101590.13;5100080;28;20056;-68
2022/06/18 08:30:50;;;;;;;8.38;3.78;;;;;;;24.47;48.30;101592.28;5102614;28;20075;-68
2022/06/18 08:33:18;;;;;;;8.05;3.20;;;;;;;24.50;48.06;101588.13;5094059;28;20040;-68
2022/06/18 08:35:46;;;;;;;7.65;3.45;;;;;;;24.51;48.06;101587.81;5098860;28;20044;-68
2022/06/18 08:38:14;;;;;;;8.63;2.92;;;;;;;24.49;48.37;101581.81;5102577;28;20089;-68
2022/06/18 08:41:23;;;;;;;8.45;3.22;;;;;;;24.57;48.34;101583.88;5097555;28;20582;-68
2022/06/18 08:44:13;;;;;;;11.52;3.53;;;;;;;24.60;48.27;101579.72;5098488;28;20043;-68
2022/06/18 08:46:51;;;;;;;10.07;3.05;;;;;;;24.63;48.73;101588.19;5096610;28;20062;-68
2022/06/18 08:49:31;;;;;;;7.13;3.53;;;;;;;24.66;48.61;101589.53;5097442;28;20052;-68
2022/06/18 08:52:16;;;;;;;7.28;2.88;;;;;;;24.67;48.49;101585.66;5099737;28;20052;-68
2022/06/18 08:54:57;;;;;;;9.97;3.60;;;;;;;24.70;48.24;101579.56;5102456;28;20083;-68
2022/06/18 08:57:34;;;;;;;9.00;3.25;;;;;;;24.72;48.49;101588.34;5090486;28;20048;-67
2022/06/18 09:00:13;;;;;;;8.77;2.97;;;;;;;24.75;48.57;101592.41;5100640;28;20527;-68
2022/06/18 09:02:48;;;;;;;7.07;2.80;;;;;;;24.76;48.29;101589.38;5101535;28;20059;-66
2022/06/18 09:05:46;;;;;;;7.85;3.60;;;;;;;24.74;48.52;101572.34;5102631;28;20066;-67
2022/06/18 09:08:43;;;;;;;11.90;3.50;;;;;;;24.83;48.50;101583.50;5101767;28;20059;-67
2022/06/18 09:11:27;;;;;;;5.00;3.13;;;;;;;24.85;48.60;101584.81;5086788;28;20463;-68
2022/06/18 09:14:00;;;;;;;9.10;3.10;;;;;;;24.88;48.56;101588.91;5101788;28;20044;-68
2022/06/18 09:16:38;;;;;;;6.03;2.88;;;;;;;24.93;48.52;101589.66;5101500;28;20537;-67
2022/06/18 09:19:12;;;;;;;11.60;3.33;;;;;;;24.97;48.51;101598.13;5091173;28;20075;-67
2022/06/18 09:21:43;;;;;;;10.95;4.00;;;;;;;24.99;48.52;101598.66;5104287;28;20075;-68
2022/06/18 09:24:17;;;;;;;11.32;3.67;;;;;;;25.00;48.47;101591.22;5097429;28;20036;-68
2022/06/18 09:26:49;;;;;;;6.97;3.17;;;;;;;24.99;48.29;101587.66;5092165;28;20080;-68
2022/06/18 09:29:23;;;;;;;11.25;3.45;;;;;;;25.04;48.53;101598.56;5099877;28;20079;-68
2022/06/18 09:32:00;;;;;;;7.88;3.78;;;;;;;25.07;48.55;101597.16;5105828;28;20300;-68
2022/06/18 09:34:33;;;;;;;6.30;3.05;;;;;;;25.09;48.43;101594.91;5103983;28;20044;-68
2022/06/18 09:37:06;;;;;;;7.22;2.97;;;;;;;25.11;48.46;101595.44;5105264;28;20052;-68
2022/06/18 09:39:38;;;;;;;6.43;3.20;;;;;;;25.08;48.20;101587.78;5105905;28;20059;-68
2022/06/18 09:42:11;;;;;;;9.75;3.63;;;;;;;25.15;48.20;101590.97;5105231;28;20094;-67
2022/06/18 09:44:45;;;;;;;6.70;3.30;;;;;;;25.17;48.42;101595.03;5097862;28;20041;-67
2022/06/18 09:47:20;;;;;;;8.40;3.22;;;;;;;25.21;48.62;101587.81;5107019;28;20071;-68
2022/06/18 09:49:48;;;;;;;6.17;3.37;;;;;;;25.25;48.48;101590.78;5105471;28;20051;-67
2022/06/18 09:52:25;;;;;;;10.77;3.33;;;;;;;25.29;48.50;101594.56;5104383;28;20063;-67
2022/06/18 09:54:58;;;;;;;15.25;3.92;;;;;;;25.28;48.55;101585.50;5097117;28;20067;-67
2022/06/18 09:57:32;;;;;;;12.13;3.72;;;;;;;25.29;48.69;101569.81;5104299;28;20539;-67
2022/06/18 10:00:08;;;;;;;10.00;3.58;;;;;;;25.36;48.74;101572.97;5105063;28;20052;-67
2022/06/18 10:02:43;;;;;;;9.60;4.00;;;;;;;25.40;48.57;101578.69;5104793;28;20051;-67
2022/06/18 10:08:03;;;;;;;12.52;3.97;;;;;;;25.47;48.95;101570.84;5105921;28;20052;-68
2022/06/18 10:10:34;;;;;;;11.20;3.50;;;;;;;25.56;48.94;101575.34;5102032;28;20064;-68
2022/06/18 10:13:12;;;;;;;7.50;4.20;;;;;;;25.59;48.77;101566.47;5102420;28;20097;-68
2022/06/18 10:15:39;;;;;;;7.70;3.45;;;;;;;25.63;48.54;101567.50;5100318;28;20048;-68
2022/06/18 10:18:21;;;;;;;8.65;3.55;;;;;;;25.66;48.40;101573.53;5103552;28;20071;-67
2022/06/18 10:20:56;;;;;;;11.27;3.50;;;;;;;25.71;48.67;101567.94;5096089;28;20353;-68
2022/06/18 10:23:38;;;;;;;12.15;4.00;;;;;;;25.75;48.60;101569.75;5101304;28;20036;-68
2022/06/18 10:26:13;;;;;;;12.75;3.42;;;;;;;25.77;48.46;101562.00;5103538;28;20494;-68
2022/06/18 10:28:52;;;;;;;10.63;4.80;;;;;;;25.80;48.54;101558.66;5093313;28;20051;-68
2022/06/18 10:31:30;;;;;;;9.68;3.72;;;;;;;25.83;48.31;101549.78;5103510;28;20059;-67
2022/06/18 10:34:09;;;;;;;8.30;4.22;;;;;;;25.86;48.18;101546.41;5095118;28;20067;-68
2022/06/18 10:36:45;;;;;;;10.27;3.92;;;;;;;25.86;47.97;101554.66;5104144;28;20074;-68
2022/06/18 10:39:21;;;;;;;10.20;4.60;;;;;;;25.89;48.11;101554.03;5104676;28;20059;-68
2022/06/18 10:42:11;;;;;;;10.27;4.47;;;;;;;25.92;48.06;101542.41;5102202;28;20044;-67
2022/06/18 10:44:54;;;;;;;7.78;3.88;;;;;;;26.00;48.20;101545.56;5103940;28;20150;-68
2022/06/18 10:47:21;;;;;;;6.97;3.42;;;;;;;26.06;48.10;101541.53;5099016;28;20044;-67
2022/06/18 10:50:01;;;;;;;9.25;3.97;;;;;;;26.12;48.08;101540.31;5096688;28;20055;-67
2022/06/18 10:52:29;;;;;;;11.23;3.75;;;;;;;26.15;47.72;101539.69;5096319;28;20052;-66
2022/06/18 10:55:08;;;;;;;12.15;3.78;;;;;;;26.23;47.83;101541.72;5099026;28;20040;-68
2022/06/18 10:57:35;;;;;;;9.85;3.97;;;;;;;26.27;47.66;101537.22;5092908;28;20048;-67
2022/06/18 11:00:17;;;;;;;7.63;3.58;;;;;;;26.32;47.63;101531.59;5102012;28;20392;-68
2022/06/18 11:02:46;;;;;;;8.68;3.53;;;;;;;26.36;47.58;101529.03;5103409;28;20051;-68
2022/06/18 11:05:23;;;;;;;9.18;3.45;;;;;;;26.44;47.49;101522.78;5103827;28;20044;-68
2022/06/18 11:07:54;;;;;;;11.55;3.72;;;;;;;26.55;47.45;101513.97;5100262;28;20055;-67
2022/06/18 11:10:43;;;;;;;12.73;3.95;;;;;;;26.63;47.31;101514.34;5099278;28;20147;-69
2022/06/18 11:13:20;;;;;;;6.90;3.58;;;;;;;26.66;47.08;101517.28;5096434;28;20055;-68
2022/06/18 11:15:48;;;;;;;9.25;3.55;;;;;;;26.69;47.06;101516.66;5103128;28;20090;-68
2022/06/18 11:18:19;;;;;;;16.85;4.95;;;;;;;26.69;45.76;101510.31;5096303;28;20135;-67
2022/06/18 11:21:03;;;;;;;12.00;3.75;;;;;;;26.69;45.99;101505.63;5104045;28;20052;-68
2022/06/18 11:23:35;;;;;;;13.27;3.70;;;;;;;26.69;46.12;101493.78;5099804;28;20044;-69
2022/06/18 11:26:25;;;;;;;11.68;4.20;;;;;;;26.73;46.12;101487.31;5111651;28;20047;-67
2022/06/18 11:28:56;;;;;;;12.85;3.20;;;;;;;26.82;46.31;101490.13;5096412;28;20082;-68
2022/06/18 11:31:28;;;;;;;12.77;3.50;;;;;;;26.87;46.23;101473.44;5103217;28;20044;-68
2022/06/18 11:34:02;;;;;;;9.35;3.50;;;;;;;26.94;45.98;101465.53;5102558;28;20048;-69
2022/06/18 11:36:38;;;;;;;12.18;4.00;;;;;;;26.99;46.05;101462.66;5096659;28;20051;-68
2022/06/18 11:39:06;;;;;;;5.45;3.08;;;;;;;27.02;45.86;101456.50;5091739;28;20082;-67
2022/06/18 11:41:40;;;;;;;11.88;3.47;;;;;;;27.07;45.80;101444.53;5102946;28;20052;-67
2022/06/18 11:44:16;;;;;;;12.80;4.18;;;;;;;27.14;46.15;101447.63;5099261;28;20079;-68
2022/06/18 11:46:54;;;;;;;10.27;4.18;;;;;;;27.20;45.67;101449.13;5099767;28;20051;-67
2022/06/18 11:49:28;;;;;;;12.15;3.78;;;;;;;27.26;45.87;101442.31;5090440;28;20360;-69
2022/06/18 11:52:04;;;;;;;13.48;3.83;;;;;;;27.30;45.53;101442.50;5101680;28;20068;-68
2022/06/18 11:54:38;;;;;;;9.27;3.42;;;;;;;27.35;45.73;101447.88;5092924;28;20125;-68
2022/06/18 11:57:16;;;;;;;12.00;4.05;;;;;;;27.46;46.64;101450.00;5102325;28;20044;-68
2022/06/18 11:59:52;;;;;;;10.15;3.17;;;;;;;27.51;46.67;101443.53;5090813;28;20189;-68